sensor_id;sensor_type;location;lat;lon;timestamp;temperature;humidity
9450;DHT22;4763;48.370;10.874;2022-10-31T00:01:30;10.20;99.90
9450;DHT22;4763;48.370;10.874;2022-10-31T00:03:58;10.10;99.90
9450;DHT22;4763;48.370;10.874;2022-10-31T00:06:27;10.10;99.90
9450;DHT22;4763;48.370;10.874;2022-10-31T00:08:56;10.10;99.90
9450;DHT22;4763;48.370;10.874;2022-10-31T00:11:24;10.10;99.90
9450;DHT22;4763;48.370;10.874;2022-10-31T00:13:53;10.10;99.90
9450;DHT22;4763;48.370;10.874;2022-10-31T00:16:21;10.10;99.90
9450;DHT22;4763;48.370;10.874;2022-10-31T00:18:48;10.00;99.90
9450;DHT22;4763;48.370;10.874;2022-10-31T00:21:15;10.00;99.90
9450;DHT22;4763;48.370;10.874;2022-10-31T00:23:42;9.90;99.90
9450;DHT22;4763;48.370;10.874;2022-10-31T00:26:09;9.90;99.90
9450;DHT22;4763;48.370;10.874;2022-10-31T00:28:36;9.90;99.90
9450;DHT22;4763;48.370;10.874;2022-10-31T00:31:08;9.90;99.90
9450;DHT22;4763;48.370;10.874;2022-10-31T00:33:36;9.80;99.90
9450;DHT22;4763;48.370;10.874;2022-10-31T00:36:04;9.80;99.90
9450;DHT22;4763;48.370;10.874;2022-10-31T00:38:31;9.80;99.90
9450;DHT22;4763;48.370;10.874;2022-10-31T00:40:58;9.80;99.90
9450;DHT22;4763;48.370;10.874;2022-10-31T00:43:30;9.70;99.90
9450;DHT22;4763;48.370;10.874;2022-10-31T00:45:57;9.70;99.90
9450;DHT22;4763;48.370;10.874;2022-10-31T00:48:25;9.70;99.90
9450;DHT22;4763;48.370;10.874;2022-10-31T00:50:52;9.70;99.90
9450;DHT22;4763;48.370;10.874;2022-10-31T00:53:19;9.70;99.90
9450;DHT22;4763;48.370;10.874;2022-10-31T00:55:49;9.60;99.90
9450;DHT22;4763;48.370;10.874;2022-10-31T00:58:16;9.60;99.90
9450;DHT22;4763;48.370;10.874;2022-10-31T01:00:43;9.60;99.90
9450;DHT22;4763;48.370;10.874;2022-10-31T01:03:09;9.60;99.90
9450;DHT22;4763;48.370;10.874;2022-10-31T01:05:38;9.50;99.90
9450;DHT22;4763;48.370;10.874;2022-10-31T01:08:04;9.60;99.90
9450;DHT22;4763;48.370;10.874;2022-10-31T01:10:31;9.70;99.90
9450;DHT22;4763;48.370;10.874;2022-10-31T01:12:58;9.70;99.90
9450;DHT22;4763;48.370;10.874;2022-10-31T01:15:25;9.60;99.90
9450;DHT22;4763;48.370;10.874;2022-10-31T01:17:51;9.50;99.90
9450;DHT22;4763;48.370;10.874;2022-10-31T01:20:18;9.50;99.90
9450;DHT22;4763;48.370;10.874;2022-10-31T01:22:46;9.50;99.90
9450;DHT22;4763;48.370;10.874;2022-10-31T01:25:13;9.50;99.90
9450;DHT22;4763;48.370;10.874;2022-10-31T01:27:40;9.40;99.90
9450;DHT22;4763;48.370;10.874;2022-10-31T01:30:07;9.50;99.90
9450;DHT22;4763;48.370;10.874;2022-10-31T01:32:34;9.40;99.90
9450;DHT22;4763;48.370;10.874;2022-10-31T01:35:01;9.40;99.90
9450;DHT22;4763;48.370;10.874;2022-10-31T01:37:28;9.40;99.90
9450;DHT22;4763;48.370;10.874;2022-10-31T01:39:58;9.30;99.90
9450;DHT22;4763;48.370;10.874;2022-10-31T01:42:26;9.40;99.90
9450;DHT22;4763;48.370;10.874;2022-10-31T01:44:59;9.30;99.90
9450;DHT22;4763;48.370;10.874;2022-10-31T01:47:37;9.30;99.90
9450;DHT22;4763;48.370;10.874;2022-10-31T01:50:12;9.30;99.90
9450;DHT22;4763;48.370;10.874;2022-10-31T01:52:41;9.30;99.90
9450;DHT22;4763;48.370;10.874;2022-10-31T01:55:14;9.40;99.90
9450;DHT22;4763;48.370;10.874;2022-10-31T01:57:45;9.50;99.90
9450;DHT22;4763;48.370;10.874;2022-10-31T02:00:13;9.50;99.90
9450;DHT22;4763;48.370;10.874;2022-10-31T02:02:41;9.60;99.90
9450;DHT22;4763;48.370;10.874;2022-10-31T02:05:11;9.60;99.90
9450;DHT22;4763;48.370;10.874;2022-10-31T02:07:42;9.50;99.90
9450;DHT22;4763;48.370;10.874;2022-10-31T02:10:11;9.50;99.90
9450;DHT22;4763;48.370;10.874;2022-10-31T02:12:38;9.50;99.90
9450;DHT22;4763;48.370;10.874;2022-10-31T02:15:06;9.40;99.90
9450;DHT22;4763;48.370;10.874;2022-10-31T02:17:34;9.40;99.90
9450;DHT22;4763;48.370;10.874;2022-10-31T02:20:09;9.40;99.90
9450;DHT22;4763;48.370;10.874;2022-10-31T02:22:43;9.30;99.90
9450;DHT22;4763;48.370;10.874;2022-10-31T02:25:22;9.30;99.90
9450;DHT22;4763;48.370;10.874;2022-10-31T02:28:19;9.20;99.90
9450;DHT22;4763;48.370;10.874;2022-10-31T02:31:00;9.10;99.90
9450;DHT22;4763;48.370;10.874;2022-10-31T02:33:33;9.10;99.90
9450;DHT22;4763;48.370;10.874;2022-10-31T02:36:07;9.10;99.90
9450;DHT22;4763;48.370;10.874;2022-10-31T02:38:46;9.00;99.90
9450;DHT22;4763;48.370;10.874;2022-10-31T02:41:23;9.00;99.90
9450;DHT22;4763;48.370;10.874;2022-10-31T02:44:00;9.00;99.90
9450;DHT22;4763;48.370;10.874;2022-10-31T02:46:34;9.00;99.90
9450;DHT22;4763;48.370;10.874;2022-10-31T02:49:07;8.90;99.90
9450;DHT22;4763;48.370;10.874;2022-10-31T02:51:36;8.90;99.90
9450;DHT22;4763;48.370;10.874;2022-10-31T02:54:03;8.90;99.90
9450;DHT22;4763;48.370;10.874;2022-10-31T02:56:30;8.90;99.90
9450;DHT22;4763;48.370;10.874;2022-10-31T02:58:59;8.90;99.90
9450;DHT22;4763;48.370;10.874;2022-10-31T03:01:53;8.80;99.90
9450;DHT22;4763;48.370;10.874;2022-10-31T03:04:57;8.80;99.90
9450;DHT22;4763;48.370;10.874;2022-10-31T03:07:31;8.80;99.90
9450;DHT22;4763;48.370;10.874;2022-10-31T03:10:05;8.80;99.90
9450;DHT22;4763;48.370;10.874;2022-10-31T03:12:42;8.80;99.90
9450;DHT22;4763;48.370;10.874;2022-10-31T03:15:16;8.80;99.90
9450;DHT22;4763;48.370;10.874;2022-10-31T03:17:53;8.70;99.90
9450;DHT22;4763;48.370;10.874;2022-10-31T03:20:24;8.70;99.90
9450;DHT22;4763;48.370;10.874;2022-10-31T03:22:52;8.80;99.90
9450;DHT22;4763;48.370;10.874;2022-10-31T03:25:22;8.80;99.90
9450;DHT22;4763;48.370;10.874;2022-10-31T03:27:51;8.80;99.90
9450;DHT22;4763;48.370;10.874;2022-10-31T03:30:18;8.80;99.90
9450;DHT22;4763;48.370;10.874;2022-10-31T03:32:51;8.70;99.90
9450;DHT22;4763;48.370;10.874;2022-10-31T03:35:20;8.70;99.90
9450;DHT22;4763;48.370;10.874;2022-10-31T03:37:49;8.60;99.90
9450;DHT22;4763;48.370;10.874;2022-10-31T03:40:20;8.60;99.90
9450;DHT22;4763;48.370;10.874;2022-10-31T03:42:52;8.60;99.90
9450;DHT22;4763;48.370;10.874;2022-10-31T03:45:23;8.60;99.90
9450;DHT22;4763;48.370;10.874;2022-10-31T03:47:53;8.60;99.90
9450;DHT22;4763;48.370;10.874;2022-10-31T03:50:20;8.50;99.90
9450;DHT22;4763;48.370;10.874;2022-10-31T03:52:51;8.50;99.90
9450;DHT22;4763;48.370;10.874;2022-10-31T03:55:26;8.50;99.90
9450;DHT22;4763;48.370;10.874;2022-10-31T03:57:58;8.50;99.90
9450;DHT22;4763;48.370;10.874;2022-10-31T04:00:26;8.50;99.90
9450;DHT22;4763;48.370;10.874;2022-10-31T04:02:58;8.40;99.90
9450;DHT22;4763;48.370;10.874;2022-10-31T04:05:27;8.40;99.90
9450;DHT22;4763;48.370;10.874;2022-10-31T04:07:57;8.30;99.90
9450;DHT22;4763;48.370;10.874;2022-10-31T04:10:26;8.40;99.90
9450;DHT22;4763;48.370;10.874;2022-10-31T04:12:57;8.40;99.90
9450;DHT22;4763;48.370;10.874;2022-10-31T04:15:26;8.40;99.90
9450;DHT22;4763;48.370;10.874;2022-10-31T04:17:57;8.30;99.90
9450;DHT22;4763;48.370;10.874;2022-10-31T04:20:32;8.30;99.90
9450;DHT22;4763;48.370;10.874;2022-10-31T04:23:00;8.30;99.90
9450;DHT22;4763;48.370;10.874;2022-10-31T04:25:27;8.40;99.90
9450;DHT22;4763;48.370;10.874;2022-10-31T04:27:53;8.30;99.90
9450;DHT22;4763;48.370;10.874;2022-10-31T04:30:20;8.30;99.90
9450;DHT22;4763;48.370;10.874;2022-10-31T04:32:47;8.20;99.90
9450;DHT22;4763;48.370;10.874;2022-10-31T04:35:15;8.30;99.90
9450;DHT22;4763;48.370;10.874;2022-10-31T04:37:42;8.20;99.90
9450;DHT22;4763;48.370;10.874;2022-10-31T04:40:10;8.20;99.90
9450;DHT22;4763;48.370;10.874;2022-10-31T04:42:37;8.20;99.90
9450;DHT22;4763;48.370;10.874;2022-10-31T04:45:05;8.10;99.90
9450;DHT22;4763;48.370;10.874;2022-10-31T04:47:32;8.20;99.90
9450;DHT22;4763;48.370;10.874;2022-10-31T04:49:58;8.20;99.90
9450;DHT22;4763;48.370;10.874;2022-10-31T04:52:27;8.10;99.90
9450;DHT22;4763;48.370;10.874;2022-10-31T04:54:54;8.10;99.90
9450;DHT22;4763;48.370;10.874;2022-10-31T04:57:21;8.10;99.90
9450;DHT22;4763;48.370;10.874;2022-10-31T04:59:47;8.10;99.90
9450;DHT22;4763;48.370;10.874;2022-10-31T05:02:14;8.10;99.90
9450;DHT22;4763;48.370;10.874;2022-10-31T05:04:41;8.10;99.90
9450;DHT22;4763;48.370;10.874;2022-10-31T05:07:08;8.10;99.90
9450;DHT22;4763;48.370;10.874;2022-10-31T05:09:36;8.10;99.90
9450;DHT22;4763;48.370;10.874;2022-10-31T05:12:03;8.10;99.90
9450;DHT22;4763;48.370;10.874;2022-10-31T05:14:29;8.00;99.90
9450;DHT22;4763;48.370;10.874;2022-10-31T05:16:56;8.10;99.90
9450;DHT22;4763;48.370;10.874;2022-10-31T05:19:26;8.00;99.90
9450;DHT22;4763;48.370;10.874;2022-10-31T05:21:53;8.00;99.90
9450;DHT22;4763;48.370;10.874;2022-10-31T05:24:19;8.00;99.90
9450;DHT22;4763;48.370;10.874;2022-10-31T05:26:49;8.00;99.90
9450;DHT22;4763;48.370;10.874;2022-10-31T05:29:16;8.00;99.90
9450;DHT22;4763;48.370;10.874;2022-10-31T05:31:43;8.00;99.90
9450;DHT22;4763;48.370;10.874;2022-10-31T05:34:09;8.00;99.90
9450;DHT22;4763;48.370;10.874;2022-10-31T05:36:36;7.90;99.90
9450;DHT22;4763;48.370;10.874;2022-10-31T05:39:03;7.90;99.90
9450;DHT22;4763;48.370;10.874;2022-10-31T05:41:30;7.90;99.90
9450;DHT22;4763;48.370;10.874;2022-10-31T05:43:58;7.90;99.90
9450;DHT22;4763;48.370;10.874;2022-10-31T05:46:25;7.90;99.90
9450;DHT22;4763;48.370;10.874;2022-10-31T05:48:51;7.80;99.90
9450;DHT22;4763;48.370;10.874;2022-10-31T05:51:18;7.90;99.90
9450;DHT22;4763;48.370;10.874;2022-10-31T05:53:46;7.80;99.90
9450;DHT22;4763;48.370;10.874;2022-10-31T05:56:12;7.80;99.90
9450;DHT22;4763;48.370;10.874;2022-10-31T05:58:39;7.80;99.90
9450;DHT22;4763;48.370;10.874;2022-10-31T06:01:07;7.80;99.90
9450;DHT22;4763;48.370;10.874;2022-10-31T06:03:34;7.70;99.90
9450;DHT22;4763;48.370;10.874;2022-10-31T06:06:01;7.70;99.90
9450;DHT22;4763;48.370;10.874;2022-10-31T06:08:27;7.80;99.90
9450;DHT22;4763;48.370;10.874;2022-10-31T06:10:54;7.70;99.90
9450;DHT22;4763;48.370;10.874;2022-10-31T06:13:21;7.80;99.90
9450;DHT22;4763;48.370;10.874;2022-10-31T06:15:48;7.70;99.90
9450;DHT22;4763;48.370;10.874;2022-10-31T06:18:16;7.70;99.90
9450;DHT22;4763;48.370;10.874;2022-10-31T06:20:42;7.70;99.90
9450;DHT22;4763;48.370;10.874;2022-10-31T06:23:09;7.70;99.90
9450;DHT22;4763;48.370;10.874;2022-10-31T06:25:36;7.80;99.90
9450;DHT22;4763;48.370;10.874;2022-10-31T06:28:03;7.80;99.90
9450;DHT22;4763;48.370;10.874;2022-10-31T06:30:30;7.80;99.90
9450;DHT22;4763;48.370;10.874;2022-10-31T06:33:02;7.80;99.90
9450;DHT22;4763;48.370;10.874;2022-10-31T06:35:30;7.80;99.90
9450;DHT22;4763;48.370;10.874;2022-10-31T06:37:57;7.80;99.90
9450;DHT22;4763;48.370;10.874;2022-10-31T06:40:24;7.80;99.90
9450;DHT22;4763;48.370;10.874;2022-10-31T06:42:56;7.90;99.90
9450;DHT22;4763;48.370;10.874;2022-10-31T06:45:23;7.90;99.90
9450;DHT22;4763;48.370;10.874;2022-10-31T06:47:51;7.90;99.90
9450;DHT22;4763;48.370;10.874;2022-10-31T06:50:18;8.00;99.90
9450;DHT22;4763;48.370;10.874;2022-10-31T06:52:51;8.00;99.90
9450;DHT22;4763;48.370;10.874;2022-10-31T06:55:17;8.00;99.90
9450;DHT22;4763;48.370;10.874;2022-10-31T06:57:49;8.00;99.90
9450;DHT22;4763;48.370;10.874;2022-10-31T07:00:16;8.10;99.90
9450;DHT22;4763;48.370;10.874;2022-10-31T07:02:43;8.20;99.90
9450;DHT22;4763;48.370;10.874;2022-10-31T07:05:10;8.20;99.90
9450;DHT22;4763;48.370;10.874;2022-10-31T07:07:37;8.30;99.90
9450;DHT22;4763;48.370;10.874;2022-10-31T07:10:05;8.30;99.90
9450;DHT22;4763;48.370;10.874;2022-10-31T07:12:32;8.40;99.90
9450;DHT22;4763;48.370;10.874;2022-10-31T07:14:59;8.50;99.90
9450;DHT22;4763;48.370;10.874;2022-10-31T07:17:26;8.60;99.90
9450;DHT22;4763;48.370;10.874;2022-10-31T07:19:52;8.70;99.90
9450;DHT22;4763;48.370;10.874;2022-10-31T07:22:19;8.80;99.90
9450;DHT22;4763;48.370;10.874;2022-10-31T07:24:46;8.90;99.90
9450;DHT22;4763;48.370;10.874;2022-10-31T07:27:14;9.00;99.90
9450;DHT22;4763;48.370;10.874;2022-10-31T07:29:41;9.10;99.90
9450;DHT22;4763;48.370;10.874;2022-10-31T07:32:07;9.20;99.90
9450;DHT22;4763;48.370;10.874;2022-10-31T07:34:34;9.40;99.90
9450;DHT22;4763;48.370;10.874;2022-10-31T07:37:01;9.50;99.90
9450;DHT22;4763;48.370;10.874;2022-10-31T07:39:28;9.60;99.90
9450;DHT22;4763;48.370;10.874;2022-10-31T07:41:57;9.60;99.90
9450;DHT22;4763;48.370;10.874;2022-10-31T07:44:25;9.70;99.90
9450;DHT22;4763;48.370;10.874;2022-10-31T07:46:52;9.80;99.90
9450;DHT22;4763;48.370;10.874;2022-10-31T07:49:19;10.00;99.90
9450;DHT22;4763;48.370;10.874;2022-10-31T07:51:45;10.10;99.90
9450;DHT22;4763;48.370;10.874;2022-10-31T07:54:12;10.20;99.90
9450;DHT22;4763;48.370;10.874;2022-10-31T07:56:39;10.30;99.90
9450;DHT22;4763;48.370;10.874;2022-10-31T07:59:06;10.50;99.90
9450;DHT22;4763;48.370;10.874;2022-10-31T08:01:34;10.60;99.90
9450;DHT22;4763;48.370;10.874;2022-10-31T08:04:00;10.80;99.90
9450;DHT22;4763;48.370;10.874;2022-10-31T08:06:27;10.90;99.90
9450;DHT22;4763;48.370;10.874;2022-10-31T08:08:54;11.00;99.90
9450;DHT22;4763;48.370;10.874;2022-10-31T08:11:21;11.20;99.90
9450;DHT22;4763;48.370;10.874;2022-10-31T08:13:47;11.30;99.90
9450;DHT22;4763;48.370;10.874;2022-10-31T08:16:14;11.50;99.90
9450;DHT22;4763;48.370;10.874;2022-10-31T08:18:42;11.60;99.90
9450;DHT22;4763;48.370;10.874;2022-10-31T08:21:09;11.90;99.90
9450;DHT22;4763;48.370;10.874;2022-10-31T08:23:36;12.10;99.90
9450;DHT22;4763;48.370;10.874;2022-10-31T08:26:03;12.40;99.90
9450;DHT22;4763;48.370;10.874;2022-10-31T08:28:31;12.50;99.90
9450;DHT22;4763;48.370;10.874;2022-10-31T08:30:58;12.80;99.90
9450;DHT22;4763;48.370;10.874;2022-10-31T08:33:25;13.00;99.90
9450;DHT22;4763;48.370;10.874;2022-10-31T08:35:53;13.10;99.90
9450;DHT22;4763;48.370;10.874;2022-10-31T08:38:20;13.20;99.90
9450;DHT22;4763;48.370;10.874;2022-10-31T08:40:48;13.30;99.90
9450;DHT22;4763;48.370;10.874;2022-10-31T08:43:16;13.40;99.90
9450;DHT22;4763;48.370;10.874;2022-10-31T08:45:46;13.40;99.90
9450;DHT22;4763;48.370;10.874;2022-10-31T08:48:14;13.40;99.90
9450;DHT22;4763;48.370;10.874;2022-10-31T08:50:44;13.50;99.90
9450;DHT22;4763;48.370;10.874;2022-10-31T08:53:13;13.60;99.90
9450;DHT22;4763;48.370;10.874;2022-10-31T08:55:41;13.70;99.90
9450;DHT22;4763;48.370;10.874;2022-10-31T08:58:10;13.90;99.90
9450;DHT22;4763;48.370;10.874;2022-10-31T09:00:38;14.10;99.90
9450;DHT22;4763;48.370;10.874;2022-10-31T09:03:12;14.10;99.90
9450;DHT22;4763;48.370;10.874;2022-10-31T09:05:39;14.20;99.90
9450;DHT22;4763;48.370;10.874;2022-10-31T09:08:07;14.10;99.90
9450;DHT22;4763;48.370;10.874;2022-10-31T09:10:36;14.30;99.90
9450;DHT22;4763;48.370;10.874;2022-10-31T09:13:06;14.50;99.90
9450;DHT22;4763;48.370;10.874;2022-10-31T09:15:34;14.60;99.90
9450;DHT22;4763;48.370;10.874;2022-10-31T09:18:02;14.90;99.90
9450;DHT22;4763;48.370;10.874;2022-10-31T09:20:32;15.00;99.90
9450;DHT22;4763;48.370;10.874;2022-10-31T09:23:01;15.00;99.90
9450;DHT22;4763;48.370;10.874;2022-10-31T09:25:28;15.00;99.90
9450;DHT22;4763;48.370;10.874;2022-10-31T09:27:57;15.10;99.90
9450;DHT22;4763;48.370;10.874;2022-10-31T09:30:25;15.10;99.90
9450;DHT22;4763;48.370;10.874;2022-10-31T09:32:55;15.30;99.90
9450;DHT22;4763;48.370;10.874;2022-10-31T09:35:22;15.50;99.90
9450;DHT22;4763;48.370;10.874;2022-10-31T09:37:54;15.60;99.90
9450;DHT22;4763;48.370;10.874;2022-10-31T09:40:21;15.70;99.90
9450;DHT22;4763;48.370;10.874;2022-10-31T09:42:55;15.70;99.90
9450;DHT22;4763;48.370;10.874;2022-10-31T09:45:31;15.80;99.90
9450;DHT22;4763;48.370;10.874;2022-10-31T09:48:09;15.90;99.90
9450;DHT22;4763;48.370;10.874;2022-10-31T09:50:45;16.00;99.90
9450;DHT22;4763;48.370;10.874;2022-10-31T09:53:21;16.10;99.90
9450;DHT22;4763;48.370;10.874;2022-10-31T09:55:51;16.20;99.90
9450;DHT22;4763;48.370;10.874;2022-10-31T09:58:20;16.20;99.90
9450;DHT22;4763;48.370;10.874;2022-10-31T10:00:50;16.30;99.90
9450;DHT22;4763;48.370;10.874;2022-10-31T10:03:27;16.30;99.90
9450;DHT22;4763;48.370;10.874;2022-10-31T10:05:59;16.30;99.90
9450;DHT22;4763;48.370;10.874;2022-10-31T10:08:30;16.50;99.90
9450;DHT22;4763;48.370;10.874;2022-10-31T10:11:02;16.60;99.90
9450;DHT22;4763;48.370;10.874;2022-10-31T10:13:40;16.70;99.90
9450;DHT22;4763;48.370;10.874;2022-10-31T10:16:19;16.80;99.90
9450;DHT22;4763;48.370;10.874;2022-10-31T10:18:58;16.90;99.90
9450;DHT22;4763;48.370;10.874;2022-10-31T10:21:36;17.00;99.90
9450;DHT22;4763;48.370;10.874;2022-10-31T10:24:31;17.00;99.90
9450;DHT22;4763;48.370;10.874;2022-10-31T10:27:05;17.10;99.90
9450;DHT22;4763;48.370;10.874;2022-10-31T10:29:40;17.20;99.90
9450;DHT22;4763;48.370;10.874;2022-10-31T10:32:19;17.30;99.90
9450;DHT22;4763;48.370;10.874;2022-10-31T10:34:50;17.10;99.90
9450;DHT22;4763;48.370;10.874;2022-10-31T10:37:26;17.20;99.90
9450;DHT22;4763;48.370;10.874;2022-10-31T10:39:56;17.30;99.90
9450;DHT22;4763;48.370;10.874;2022-10-31T10:42:27;17.40;99.90
9450;DHT22;4763;48.370;10.874;2022-10-31T10:45:15;17.40;99.90
9450;DHT22;4763;48.370;10.874;2022-10-31T10:48:08;17.50;99.90
9450;DHT22;4763;48.370;10.874;2022-10-31T10:50:40;17.40;99.90
9450;DHT22;4763;48.370;10.874;2022-10-31T10:53:18;17.50;99.90
9450;DHT22;4763;48.370;10.874;2022-10-31T10:55:59;17.50;99.90
9450;DHT22;4763;48.370;10.874;2022-10-31T10:58:28;17.60;99.90
9450;DHT22;4763;48.370;10.874;2022-10-31T11:00:55;17.50;99.90
9450;DHT22;4763;48.370;10.874;2022-10-31T11:03:23;17.50;99.90
9450;DHT22;4763;48.370;10.874;2022-10-31T11:05:52;17.60;99.90
9450;DHT22;4763;48.370;10.874;2022-10-31T11:08:26;17.50;99.90
9450;DHT22;4763;48.370;10.874;2022-10-31T11:10:58;17.40;99.90
9450;DHT22;4763;48.370;10.874;2022-10-31T11:13:25;17.40;99.90
9450;DHT22;4763;48.370;10.874;2022-10-31T11:15:59;17.40;99.90
9450;DHT22;4763;48.370;10.874;2022-10-31T11:18:29;17.40;99.90
9450;DHT22;4763;48.370;10.874;2022-10-31T11:20:58;17.20;99.90
9450;DHT22;4763;48.370;10.874;2022-10-31T11:23:26;17.30;99.90
9450;DHT22;4763;48.370;10.874;2022-10-31T11:25:56;17.30;99.90
9450;DHT22;4763;48.370;10.874;2022-10-31T11:28:23;17.30;99.90
9450;DHT22;4763;48.370;10.874;2022-10-31T11:30:53;17.40;99.90
9450;DHT22;4763;48.370;10.874;2022-10-31T11:33:25;17.50;99.90
9450;DHT22;4763;48.370;10.874;2022-10-31T11:35:54;17.60;99.90
9450;DHT22;4763;48.370;10.874;2022-10-31T11:38:24;17.70;99.90
9450;DHT22;4763;48.370;10.874;2022-10-31T11:40:54;17.80;99.90
9450;DHT22;4763;48.370;10.874;2022-10-31T11:43:22;17.90;99.90
9450;DHT22;4763;48.370;10.874;2022-10-31T11:45:50;18.00;99.90
9450;DHT22;4763;48.370;10.874;2022-10-31T11:48:20;18.10;99.90
9450;DHT22;4763;48.370;10.874;2022-10-31T11:50:50;18.10;99.90
9450;DHT22;4763;48.370;10.874;2022-10-31T11:53:22;18.10;99.90
9450;DHT22;4763;48.370;10.874;2022-10-31T11:56:02;18.20;99.90
9450;DHT22;4763;48.370;10.874;2022-10-31T11:58:30;18.30;99.90
9450;DHT22;4763;48.370;10.874;2022-10-31T12:00:58;18.50;99.90
9450;DHT22;4763;48.370;10.874;2022-10-31T12:03:37;18.70;99.90
9450;DHT22;4763;48.370;10.874;2022-10-31T12:06:07;18.90;99.90
9450;DHT22;4763;48.370;10.874;2022-10-31T12:08:39;18.90;99.90
9450;DHT22;4763;48.370;10.874;2022-10-31T12:11:13;18.80;99.90
9450;DHT22;4763;48.370;10.874;2022-10-31T12:13:52;19.10;99.90
9450;DHT22;4763;48.370;10.874;2022-10-31T12:16:26;18.90;99.90
9450;DHT22;4763;48.370;10.874;2022-10-31T12:19:00;18.80;99.90
9450;DHT22;4763;48.370;10.874;2022-10-31T12:21:45;18.70;99.90
9450;DHT22;4763;48.370;10.874;2022-10-31T12:24:39;18.80;99.90
9450;DHT22;4763;48.370;10.874;2022-10-31T12:27:18;18.90;99.90
9450;DHT22;4763;48.370;10.874;2022-10-31T12:30:00;19.10;99.90
9450;DHT22;4763;48.370;10.874;2022-10-31T12:32:37;19.30;99.90
9450;DHT22;4763;48.370;10.874;2022-10-31T12:35:25;19.50;99.90
9450;DHT22;4763;48.370;10.874;2022-10-31T12:38:18;19.40;99.90
9450;DHT22;4763;48.370;10.874;2022-10-31T12:41:00;19.40;99.90
9450;DHT22;4763;48.370;10.874;2022-10-31T12:43:36;19.20;99.90
9450;DHT22;4763;48.370;10.874;2022-10-31T12:46:12;19.00;99.90
9450;DHT22;4763;48.370;10.874;2022-10-31T12:51:45;18.90;99.90
9450;DHT22;4763;48.370;10.874;2022-10-31T12:54:26;19.10;99.90
9450;DHT22;4763;48.370;10.874;2022-10-31T12:57:02;19.10;99.90
9450;DHT22;4763;48.370;10.874;2022-10-31T12:59:36;19.20;99.90
9450;DHT22;4763;48.370;10.874;2022-10-31T13:02:14;19.10;99.90
9450;DHT22;4763;48.370;10.874;2022-10-31T13:04:46;19.10;99.90
9450;DHT22;4763;48.370;10.874;2022-10-31T13:07:19;19.00;99.90
9450;DHT22;4763;48.370;10.874;2022-10-31T13:09:53;18.80;99.90
9450;DHT22;4763;48.370;10.874;2022-10-31T13:12:22;18.80;99.90
9450;DHT22;4763;48.370;10.874;2022-10-31T13:14:52;18.70;99.90
9450;DHT22;4763;48.370;10.874;2022-10-31T13:17:26;18.60;99.90
9450;DHT22;4763;48.370;10.874;2022-10-31T13:20:02;18.50;99.90
9450;DHT22;4763;48.370;10.874;2022-10-31T13:22:32;18.50;99.90
9450;DHT22;4763;48.370;10.874;2022-10-31T13:25:09;18.40;99.90
9450;DHT22;4763;48.370;10.874;2022-10-31T13:27:43;18.50;99.90
9450;DHT22;4763;48.370;10.874;2022-10-31T13:30:14;18.50;99.90
9450;DHT22;4763;48.370;10.874;2022-10-31T13:32:44;18.50;99.90
9450;DHT22;4763;48.370;10.874;2022-10-31T13:35:19;18.50;99.90
9450;DHT22;4763;48.370;10.874;2022-10-31T13:37:52;18.70;99.90
9450;DHT22;4763;48.370;10.874;2022-10-31T13:40:32;18.80;99.90
9450;DHT22;4763;48.370;10.874;2022-10-31T13:43:06;18.80;99.90
9450;DHT22;4763;48.370;10.874;2022-10-31T13:45:48;18.90;99.90
9450;DHT22;4763;48.370;10.874;2022-10-31T13:48:32;19.00;99.90
9450;DHT22;4763;48.370;10.874;2022-10-31T13:51:03;18.80;99.90
9450;DHT22;4763;48.370;10.874;2022-10-31T13:53:39;18.70;99.90
9450;DHT22;4763;48.370;10.874;2022-10-31T13:56:16;18.70;99.90
9450;DHT22;4763;48.370;10.874;2022-10-31T13:59:01;18.50;99.90
9450;DHT22;4763;48.370;10.874;2022-10-31T14:01:30;18.40;99.90
9450;DHT22;4763;48.370;10.874;2022-10-31T14:04:02;18.30;99.90
9450;DHT22;4763;48.370;10.874;2022-10-31T14:06:45;18.30;99.90
9450;DHT22;4763;48.370;10.874;2022-10-31T14:09:26;18.20;99.90
9450;DHT22;4763;48.370;10.874;2022-10-31T14:11:54;18.00;99.90
9450;DHT22;4763;48.370;10.874;2022-10-31T14:14:44;17.90;99.90
9450;DHT22;4763;48.370;10.874;2022-10-31T14:17:23;17.80;99.90
9450;DHT22;4763;48.370;10.874;2022-10-31T14:20:00;17.70;99.90
9450;DHT22;4763;48.370;10.874;2022-10-31T14:22:32;17.60;99.90
9450;DHT22;4763;48.370;10.874;2022-10-31T14:24:59;17.50;99.90
9450;DHT22;4763;48.370;10.874;2022-10-31T14:27:45;17.40;99.90
9450;DHT22;4763;48.370;10.874;2022-10-31T14:30:19;17.40;99.90
9450;DHT22;4763;48.370;10.874;2022-10-31T14:32:51;17.30;99.90
9450;DHT22;4763;48.370;10.874;2022-10-31T14:35:20;17.30;99.90
9450;DHT22;4763;48.370;10.874;2022-10-31T14:38:05;17.20;99.90
9450;DHT22;4763;48.370;10.874;2022-10-31T14:40:41;17.20;99.90
9450;DHT22;4763;48.370;10.874;2022-10-31T14:43:33;17.10;99.90
9450;DHT22;4763;48.370;10.874;2022-10-31T14:46:05;17.10;99.90
9450;DHT22;4763;48.370;10.874;2022-10-31T14:48:48;17.10;99.90
9450;DHT22;4763;48.370;10.874;2022-10-31T14:51:21;17.20;99.90
9450;DHT22;4763;48.370;10.874;2022-10-31T14:53:50;17.10;99.90
9450;DHT22;4763;48.370;10.874;2022-10-31T14:56:26;17.00;99.90
9450;DHT22;4763;48.370;10.874;2022-10-31T14:59:20;17.00;99.90
9450;DHT22;4763;48.370;10.874;2022-10-31T15:01:57;16.90;99.90
9450;DHT22;4763;48.370;10.874;2022-10-31T15:04:29;16.90;99.90
9450;DHT22;4763;48.370;10.874;2022-10-31T15:07:02;16.90;99.90
9450;DHT22;4763;48.370;10.874;2022-10-31T15:09:32;16.90;99.90
9450;DHT22;4763;48.370;10.874;2022-10-31T15:12:00;16.70;99.90
9450;DHT22;4763;48.370;10.874;2022-10-31T15:14:31;16.70;99.90
9450;DHT22;4763;48.370;10.874;2022-10-31T15:17:02;16.70;99.90
9450;DHT22;4763;48.370;10.874;2022-10-31T15:19:31;16.60;99.90
9450;DHT22;4763;48.370;10.874;2022-10-31T15:22:00;16.70;99.90
9450;DHT22;4763;48.370;10.874;2022-10-31T15:24:31;16.60;99.90
9450;DHT22;4763;48.370;10.874;2022-10-31T15:26:59;16.60;99.90
9450;DHT22;4763;48.370;10.874;2022-10-31T15:29:27;16.70;99.90
9450;DHT22;4763;48.370;10.874;2022-10-31T15:31:56;16.40;99.90
9450;DHT22;4763;48.370;10.874;2022-10-31T15:34:31;16.30;99.90
9450;DHT22;4763;48.370;10.874;2022-10-31T15:37:01;16.20;99.90
9450;DHT22;4763;48.370;10.874;2022-10-31T15:39:28;16.20;99.90
9450;DHT22;4763;48.370;10.874;2022-10-31T15:41:56;16.10;99.90
9450;DHT22;4763;48.370;10.874;2022-10-31T15:44:26;16.00;99.90
9450;DHT22;4763;48.370;10.874;2022-10-31T15:46:55;16.00;99.90
9450;DHT22;4763;48.370;10.874;2022-10-31T15:49:33;15.90;99.90
9450;DHT22;4763;48.370;10.874;2022-10-31T15:52:12;15.80;99.90
9450;DHT22;4763;48.370;10.874;2022-10-31T15:54:47;15.60;99.90
9450;DHT22;4763;48.370;10.874;2022-10-31T15:57:15;15.60;99.90
9450;DHT22;4763;48.370;10.874;2022-10-31T15:59:45;15.60;99.90
9450;DHT22;4763;48.370;10.874;2022-10-31T16:02:14;15.40;99.90
9450;DHT22;4763;48.370;10.874;2022-10-31T16:04:50;15.30;99.90
9450;DHT22;4763;48.370;10.874;2022-10-31T16:07:19;15.20;99.90
9450;DHT22;4763;48.370;10.874;2022-10-31T16:09:51;15.10;99.90
9450;DHT22;4763;48.370;10.874;2022-10-31T16:12:18;15.00;99.90
9450;DHT22;4763;48.370;10.874;2022-10-31T16:14:45;15.00;99.90
9450;DHT22;4763;48.370;10.874;2022-10-31T16:17:13;14.90;99.90
9450;DHT22;4763;48.370;10.874;2022-10-31T16:19:49;14.80;99.90